Time;durP1;ratioP1;P1;durP2;ratioP2;P2;SDS_P1;SDS_P2;PMS_P1;PMS_P2;Temp;Humidity;BMP_temperature;BMP_pressure;BME280_temperature;BME280_humidity;BME280_pressure;Samples;Min_cycle;Max_cycle;Signal;HPM_P1;HPM_P2
2022/10/13 00:01:14;;;;;;;26.40;24.40;;;;;;;13.06;61.59;101826.03;5012563;28;20045;-72
2022/10/13 00:03:40;;;;;;;29.23;26.27;;;;;;;13.06;61.52;101816.00;5013761;28;20064;-70
2022/10/13 00:06:08;;;;;;;28.33;26.05;;;;;;;13.06;61.70;101804.34;5013571;28;20068;-70
2022/10/13 00:08:34;;;;;;;26.45;24.42;;;;;;;13.05;61.65;101802.66;5013718;28;20041;-71
2022/10/13 00:11:00;;;;;;;29.67;26.83;;;;;;;13.05;61.62;101800.78;4996062;28;20466;-72
2022/10/13 00:13:26;;;;;;;29.25;26.27;;;;;;;13.06;61.88;101801.63;4995066;28;20076;-71
2022/10/13 00:15:52;;;;;;;26.17;24.27;;;;;;;13.06;61.92;101793.47;5013596;28;20041;-71
2022/10/13 00:18:17;;;;;;;28.35;25.90;;;;;;;13.05;62.06;101797.25;5013662;28;20038;-71
2022/10/13 00:20:48;;;;;;;27.95;25.80;;;;;;;13.05;62.06;101803.47;5013574;28;20121;-72
2022/10/13 00:23:14;;;;;;;28.98;26.65;;;;;;;13.04;62.06;101799.13;5013281;28;20111;-72
2022/10/13 00:25:45;;;;;;;26.08;24.00;;;;;;;13.05;61.91;101799.94;5013278;28;20033;-71
2022/10/13 00:28:10;;;;;;;30.25;27.58;;;;;;;13.05;62.09;101794.53;5013184;28;20466;-71
2022/10/13 00:30:37;;;;;;;29.30;26.52;;;;;;;13.06;62.28;101796.19;5013677;28;20084;-72
2022/10/13 00:33:02;;;;;;;28.40;26.10;;;;;;;13.06;62.13;101790.78;5013446;28;20026;-72
2022/10/13 00:35:28;;;;;;;25.55;23.52;;;;;;;13.05;62.10;101786.38;5012437;28;20030;-72
2022/10/13 00:37:53;;;;;;;27.98;25.48;;;;;;;13.04;62.37;101796.41;5013214;28;20525;-72
2022/10/13 00:40:19;;;;;;;27.70;25.35;;;;;;;13.04;62.28;101791.00;5012161;28;20030;-73
2022/10/13 00:42:44;;;;;;;28.15;25.83;;;;;;;13.05;62.10;101786.38;5013303;28;20536;-72
2022/10/13 00:45:19;;;;;;;29.90;27.23;;;;;;;13.04;62.29;101796.41;5013537;28;20038;-72
2022/10/13 00:47:48;;;;;;;25.52;23.80;;;;;;;13.04;62.53;101793.72;5012425;28;20137;-72
2022/10/13 00:50:18;;;;;;;26.60;24.60;;;;;;;13.04;62.25;101787.47;5013197;28;20041;-71
2022/10/13 00:52:45;;;;;;;25.80;23.95;;;;;;;13.03;62.29;101791.22;5012721;28;20072;-71
2022/10/13 00:55:16;;;;;;;29.30;26.67;;;;;;;13.03;62.34;101788.50;5013466;28;20050;-71
2022/10/13 00:57:45;;;;;;;25.38;23.50;;;;;;;13.03;62.36;101789.34;5013215;28;20026;-71
2022/10/13 01:00:13;;;;;;;26.92;24.83;;;;;;;13.03;62.32;101796.63;5013415;28;20068;-72
2022/10/13 01:02:39;;;;;;;26.30;24.30;;;;;;;13.03;62.41;101797.50;5012459;28;20088;-71
2022/10/13 01:05:06;;;;;;;27.58;25.25;;;;;;;13.02;62.08;101795.81;4995203;28;20130;-72
2022/10/13 01:07:33;;;;;;;27.60;25.35;;;;;;;13.03;62.16;101793.94;5012928;28;20044;-72
2022/10/13 01:10:01;;;;;;;30.00;24.23;;;;;;;13.02;62.33;101790.38;5012843;28;20493;-72
2022/10/13 01:12:55;;;;;;;24.38;22.33;;;;;;;13.02;62.50;101781.44;5013074;28;20083;-72
2022/10/13 01:15:48;;;;;;;27.38;25.08;;;;;;;13.01;62.19;101787.94;5013378;28;20121;-72
2022/10/13 01:18:48;;;;;;;28.73;25.65;;;;;;;13.00;62.22;101784.38;5004892;28;20112;-72
2022/10/13 01:21:34;;;;;;;28.27;25.85;;;;;;;12.99;62.25;101782.72;5013321;28;20030;-72
2022/10/13 01:24:14;;;;;;;27.75;25.48;;;;;;;12.99;62.52;101783.56;5013423;28;20038;-71
2022/10/13 01:26:58;;;;;;;27.55;24.98;;;;;;;12.99;62.56;101785.44;5016848;28;20045;-71
2022/10/13 01:29:39;;;;;;;27.90;25.38;;;;;;;12.99;62.69;101790.88;5016531;28;20033;-72
2022/10/13 01:32:30;;;;;;;27.52;25.15;;;;;;;12.98;62.46;101781.91;5016860;28;20048;-74
2022/10/13 01:35:33;;;;;;;26.05;23.92;;;;;;;12.98;62.48;101787.34;5016140;28;20062;-72
2022/10/13 01:38:29;;;;;;;27.25;25.05;;;;;;;12.98;62.72;101786.50;4992944;28;20128;-71
2022/10/13 01:41:00;;;;;;;27.98;25.15;;;;;;;12.96;62.36;101780.50;5016602;28;20038;-71
2022/10/13 01:43:37;;;;;;;27.45;25.10;;;;;;;12.95;62.69;101782.38;5016465;28;20030;-71
2022/10/13 01:46:12;;;;;;;28.75;26.23;;;;;;;12.97;62.80;101784.84;5016440;28;20034;-71
2022/10/13 01:48:40;;;;;;;28.02;25.55;;;;;;;12.98;62.71;101781.91;5015952;28;20026;-71
2022/10/13 01:51:11;;;;;;;27.98;25.33;;;;;;;12.96;62.75;101775.06;5016309;28;20537;-75
2022/10/13 01:53:37;;;;;;;28.95;26.35;;;;;;;12.98;62.92;101771.06;5016161;28;20037;-71
2022/10/13 01:56:02;;;;;;;29.40;26.45;;;;;;;12.97;62.83;101772.09;5016087;28;20038;-72
2022/10/13 01:58:31;;;;;;;27.67;24.33;;;;;;;12.98;62.93;101781.09;5014864;28;20385;-71
2022/10/13 02:01:12;;;;;;;28.45;25.90;;;;;;;12.97;63.11;101763.16;5014671;28;20466;-72
2022/10/13 02:04:04;;;;;;;28.27;26.02;;;;;;;12.98;63.18;101756.69;5015681;28;20041;-71
2022/10/13 02:06:36;;;;;;;28.52;26.13;;;;;;;12.97;63.26;101749.59;5016102;28;20025;-72
2022/10/13 02:09:42;;;;;;;27.33;25.23;;;;;;;12.97;63.33;101753.13;5014781;28;20454;-72
2022/10/13 02:12:18;;;;;;;27.10;25.10;;;;;;;12.97;63.21;101744.97;5008143;28;20050;-72
2022/10/13 02:14:45;;;;;;;26.77;24.50;;;;;;;12.96;63.36;101748.75;5015146;28;20438;-72
2022/10/13 02:17:11;;;;;;;27.95;25.20;;;;;;;12.97;63.20;101744.97;5014294;28;20532;-71
2022/10/13 02:19:38;;;;;;;27.05;25.02;;;;;;;12.96;63.55;101740.63;5015589;28;20042;-72
2022/10/13 02:22:05;;;;;;;25.25;23.42;;;;;;;12.97;63.49;101736.03;5014538;28;20030;-71
2022/10/13 02:24:31;;;;;;;26.98;24.80;;;;;;;12.97;63.68;101736.84;5014057;28;20055;-72
2022/10/13 02:26:57;;;;;;;27.90;25.90;;;;;;;12.97;63.18;101728.72;5014397;28;20470;-71
2022/10/13 02:29:23;;;;;;;28.58;26.33;;;;;;;12.98;63.50;101724.13;5014056;28;20378;-72
2022/10/13 02:31:49;;;;;;;26.98;24.58;;;;;;;12.97;63.35;101723.28;5015047;28;20030;-72
2022/10/13 02:34:14;;;;;;;26.42;23.98;;;;;;;12.98;63.19;101722.25;5015212;28;20033;-72
2022/10/13 02:36:40;;;;;;;25.15;23.45;;;;;;;12.98;63.67;101719.53;5014279;28;20085;-71
2022/10/13 02:39:07;;;;;;;26.45;24.63;;;;;;;12.98;63.32;101716.00;5015143;28;20466;-71
2022/10/13 02:41:33;;;;;;;28.13;24.58;;;;;;;12.98;63.57;101716.81;5013561;28;20062;-72
2022/10/13 02:43:58;;;;;;;26.67;24.75;;;;;;;12.99;63.32;101723.88;5015057;28;20079;-71
2022/10/13 02:46:23;;;;;;;27.58;25.52;;;;;;;12.99;63.40;101726.59;5014921;28;20533;-72
2022/10/13 02:48:49;;;;;;;28.13;25.67;;;;;;;13.00;63.41;101724.69;5015199;28;20026;-71
2022/10/13 02:51:14;;;;;;;27.33;25.17;;;;;;;12.99;63.49;101729.31;5014628;28;20118;-71
2022/10/13 02:53:39;;;;;;;28.48;26.05;;;;;;;13.00;63.53;101727.41;5015407;28;20045;-71
2022/10/13 02:56:05;;;;;;;25.05;22.98;;;;;;;13.00;63.64;101724.69;5014892;28;20462;-71
2022/10/13 02:58:30;;;;;;;27.70;25.58;;;;;;;13.00;63.49;101713.84;5014727;28;20062;-71
2022/10/13 03:01:13;;;;;;;25.48;23.55;;;;;;;13.00;63.79;101708.44;4997012;28;20466;-73
2022/10/13 03:03:39;;;;;;;27.95;25.25;;;;;;;13.00;63.68;101711.13;5014740;28;20424;-71
2022/10/13 03:06:05;;;;;;;25.05;23.23;;;;;;;13.00;63.61;101722.00;5014404;28;20494;-72
2022/10/13 03:08:32;;;;;;;27.38;24.67;;;;;;;13.00;63.53;101713.84;5014545;28;20069;-71
2022/10/13 03:10:58;;;;;;;26.58;24.40;;;;;;;13.00;63.74;101716.56;5014882;28;20068;-72
2022/10/13 03:13:23;;;;;;;29.20;26.30;;;;;;;13.01;63.56;101717.41;5013330;28;20131;-71
2022/10/13 03:15:48;;;;;;;26.90;24.83;;;;;;;13.01;63.46;101710.09;5014428;28;20499;-71
2022/10/13 03:18:14;;;;;;;27.73;25.48;;;;;;;13.02;63.58;101710.91;4997108;28;20049;-71
2022/10/13 03:20:39;;;;;;;27.70;25.60;;;;;;;13.02;63.66;101705.50;5014365;28;20057;-71
2022/10/13 03:23:07;;;;;;;26.98;24.23;;;;;;;13.02;63.71;101702.78;5013136;28;20030;-71
2022/10/13 03:25:33;;;;;;;27.60;24.73;;;;;;;13.02;63.50;101702.78;5014078;28;20033;-71
2022/10/13 03:27:59;;;;;;;26.63;24.45;;;;;;;13.02;63.74;101695.47;5013997;28;20433;-70
2022/10/13 03:30:25;;;;;;;26.48;24.48;;;;;;;13.03;63.64;101707.97;5014482;28;20041;-71
2022/10/13 03:32:51;;;;;;;26.42;24.10;;;;;;;13.02;63.57;101697.34;5014243;28;20471;-71
2022/10/13 03:35:16;;;;;;;27.65;25.27;;;;;;;13.03;63.59;101690.84;5014141;28;20202;-71
2022/10/13 03:37:41;;;;;;;25.73;23.92;;;;;;;13.03;63.79;101682.72;5014261;28;20054;-71
2022/10/13 03:40:08;;;;;;;27.08;25.08;;;;;;;13.04;63.79;101678.97;5014114;28;20036;-71
2022/10/13 03:42:37;;;;;;;28.45;26.02;;;;;;;13.03;63.81;101675.44;5012924;28;20417;-71
2022/10/13 03:45:04;;;;;;;26.13;24.08;;;;;;;13.04;63.82;101670.84;5014303;28;20117;-71
2022/10/13 03:47:29;;;;;;;27.50;24.95;;;;;;;13.04;63.74;101676.25;5012445;28;20549;-74
2022/10/13 03:49:55;;;;;;;25.10;23.13;;;;;;;13.04;63.63;101673.53;5014049;28;20033;-72
2022/10/13 03:52:21;;;;;;;28.52;25.52;;;;;;;13.04;63.71;101678.97;5012602;28;20061;-74
2022/10/13 03:54:47;;;;;;;26.02;24.13;;;;;;;13.05;63.50;101667.88;5014474;28;20040;-73
2022/10/13 03:57:12;;;;;;;26.95;24.48;;;;;;;13.06;63.76;101663.28;5012512;28;20038;-72
2022/10/13 03:59:39;;;;;;;28.70;26.10;;;;;;;13.05;63.73;101654.31;5013765;28;20434;-72
2022/10/13 04:02:05;;;;;;;27.50;25.23;;;;;;;13.05;63.69;101654.31;5013771;28;20042;-72
2022/10/13 04:04:31;;;;;;;28.15;25.65;;;;;;;13.06;63.78;101663.28;5013371;28;20385;-72
2022/10/13 04:06:56;;;;;;;26.08;24.23;;;;;;;13.06;63.73;101660.56;5013711;28;20026;-72
2022/10/13 04:09:21;;;;;;;26.40;24.50;;;;;;;13.07;63.95;101670.34;5013703;28;20034;-71
2022/10/13 04:11:50;;;;;;;25.67;23.58;;;;;;;13.06;63.82;101664.09;5013340;28;20053;-72
2022/10/13 04:14:15;;;;;;;27.33;24.80;;;;;;;13.06;63.82;101658.69;5013691;28;20068;-72
2022/10/13 04:16:40;;;;;;;27.92;25.20;;;;;;;13.07;63.85;101656.78;5013548;28;20057;-72
2022/10/13 04:19:06;;;;;;;27.73;25.52;;;;;;;13.07;63.98;101654.06;5013255;28;20054;-71
2022/10/13 04:21:33;;;;;;;29.10;26.42;;;;;;;13.08;64.42;101653.84;5012378;28;20030;-72
2022/10/13 04:24:00;;;;;;;25.98;24.02;;;;;;;13.08;64.23;101662.00;5013512;28;20030;-72
2022/10/13 04:26:28;;;;;;;28.30;25.80;;;;;;;13.07;64.05;101668.47;5013726;28;20113;-73
2022/10/13 04:28:55;;;;;;;25.67;23.83;;;;;;;13.08;64.33;101662.00;5013504;28;20033;-72
2022/10/13 04:31:24;;;;;;;27.95;25.42;;;;;;;13.08;64.28;101664.69;5012275;28;20518;-72
2022/10/13 04:33:50;;;;;;;25.42;23.45;;;;;;;13.08;64.20;101670.13;5012092;28;20447;-73
2022/10/13 04:36:17;;;;;;;27.20;24.98;;;;;;;13.08;64.30;101670.13;5012846;28;20041;-71
2022/10/13 04:38:42;;;;;;;27.08;24.67;;;;;;;13.10;64.40;101664.44;5012689;28;20088;-72
2022/10/13 04:41:09;;;;;;;27.05;24.58;;;;;;;13.10;64.51;101668.00;5013504;28;20429;-72
2022/10/13 04:43:35;;;;;;;27.00;24.85;;;;;;;13.10;64.07;101664.44;5012248;28;20377;-72
2022/10/13 04:46:09;;;;;;;26.85;24.30;;;;;;;13.10;64.49;101664.44;5013811;28;20451;-72
2022/10/13 04:48:34;;;;;;;26.80;24.80;;;;;;;13.11;64.12;101666.13;5013297;28;20046;-72
2022/10/13 04:51:05;;;;;;;25.63;23.63;;;;;;;13.10;63.99;101664.44;5013328;28;20030;-72
2022/10/13 04:53:30;;;;;;;26.75;24.80;;;;;;;13.09;64.21;101660.09;5012953;28;20026;-72
2022/10/13 04:56:01;;;;;;;26.40;24.05;;;;;;;13.10;64.29;101659.03;5013750;28;20034;-72
2022/10/13 04:58:26;;;;;;;26.45;24.52;;;;;;;13.10;64.08;101651.72;5013074;28;20030;-72
2022/10/13 05:00:51;;;;;;;27.15;24.77;;;;;;;13.10;64.36;101646.31;5016040;28;20030;-71
2022/10/13 05:03:17;;;;;;;27.55;25.35;;;;;;;13.10;64.39;101642.75;5015794;28;20088;-72
2022/10/13 05:05:42;;;;;;;28.80;26.17;;;;;;;13.10;64.46;101649.03;5017259;28;20459;-72
2022/10/13 05:08:08;;;;;;;29.23;26.30;;;;;;;13.11;64.43;101658.78;5015952;28;20034;-72
2022/10/13 05:10:34;;;;;;;28.85;26.25;;;;;;;13.11;64.21;101652.56;5016759;28;20444;-72
2022/10/13 05:12:59;;;;;;;26.92;24.92;;;;;;;13.11;64.49;101649.84;5017000;28;20030;-72
2022/10/13 05:15:24;;;;;;;26.92;24.23;;;;;;;13.11;64.49;101650.66;5015781;28;20107;-72
2022/10/13 05:17:50;;;;;;;27.33;25.15;;;;;;;13.11;64.48;101650.66;5016596;28;20436;-71
2022/10/13 05:20:16;;;;;;;25.23;23.23;;;;;;;13.13;64.25;101658.56;5016716;28;20359;-72
2022/10/13 05:22:42;;;;;;;29.70;25.95;;;;;;;13.12;64.30;101652.28;5015284;28;20038;-71
2022/10/13 05:25:07;;;;;;;27.65;25.15;;;;;;;13.12;64.45;101651.47;5016821;28;20057;-72
2022/10/13 05:27:33;;;;;;;28.45;26.02;;;;;;;13.13;64.47;101639.59;5016369;28;20034;-73
2022/10/13 05:29:58;;;;;;;27.60;25.30;;;;;;;13.13;64.51;101642.28;5015466;28;20034;-72
2022/10/13 05:32:23;;;;;;;28.75;25.75;;;;;;;13.13;64.58;101651.25;5016384;28;20030;-72
2022/10/13 05:34:49;;;;;;;27.80;25.10;;;;;;;13.14;64.67;101654.78;5015613;28;20034;-71
2022/10/13 05:37:16;;;;;;;27.88;25.17;;;;;;;13.13;64.66;101648.53;5014953;28;20061;-72
2022/10/13 05:39:41;;;;;;;28.33;25.55;;;;;;;13.14;64.54;101647.47;5016418;28;20064;-72
2022/10/13 05:42:07;;;;;;;27.90;25.38;;;;;;;13.14;64.73;101646.66;5016197;28;20386;-71
2022/10/13 05:44:36;;;;;;;27.65;25.20;;;;;;;13.14;64.92;101641.22;5015287;28;20038;-72
2022/10/13 05:47:02;;;;;;;;;;;;;;;13.14;64.23;101649.34;5016553;28;20030;-72
2022/10/13 05:49:27;;;;;;;27.15;24.88;;;;;;;13.15;64.38;101642.84;5016142;28;20008;-72
2022/10/13 05:51:57;;;;;;;28.23;25.95;;;;;;;13.13;64.45;101634.16;5016260;28;20053;-71
2022/10/13 05:54:32;;;;;;;28.33;25.77;;;;;;;13.13;64.63;101636.88;5015991;28;20034;-72
2022/10/13 05:57:05;;;;;;;28.85;26.15;;;;;;;13.15;64.80;101634.72;5016192;28;20179;-71
2022/10/13 05:59:40;;;;;;;27.75;25.83;;;;;;;13.15;64.77;101642.84;5016577;28;20133;-72
2022/10/13 06:02:08;;;;;;;33.38;24.85;;;;;;;13.15;64.60;101637.44;5016131;28;20026;-73
2022/10/13 06:04:38;;;;;;;27.40;25.15;;;;;;;13.15;64.66;101646.41;5015721;28;20034;-75
2022/10/13 06:07:04;;;;;;;27.02;25.05;;;;;;;13.16;64.54;101644.53;5015747;28;20036;-69
2022/10/13 06:09:34;;;;;;;27.45;24.85;;;;;;;13.18;64.62;101645.13;5015607;28;20037;-71
2022/10/13 06:11:59;;;;;;;29.75;27.35;;;;;;;13.18;64.54;101645.13;5014585;28;20041;-71
2022/10/13 06:14:25;;;;;;;29.33;26.30;;;;;;;13.18;64.62;101631.56;5015565;28;20537;-71
2022/10/13 06:16:50;;;;;;;30.60;27.83;;;;;;;13.18;64.81;101632.38;5015483;28;20425;-71
2022/10/13 06:19:16;;;;;;;29.02;25.75;;;;;;;13.19;64.61;101630.47;5015583;28;20033;-72
2022/10/13 06:21:41;;;;;;;29.73;26.80;;;;;;;13.19;64.53;101630.47;5015382;28;20026;-71
2022/10/13 06:24:06;;;;;;;28.80;26.23;;;;;;;13.19;64.72;101627.75;5015398;28;20037;-71
2022/10/13 06:26:32;;;;;;;26.85;24.67;;;;;;;13.19;64.75;101628.59;5015610;28;20030;-71
2022/10/13 06:28:57;;;;;;;28.85;26.10;;;;;;;13.19;64.69;101619.63;5015217;28;20041;-75
2022/10/13 06:31:23;;;;;;;28.58;25.98;;;;;;;13.19;64.75;101630.47;4997707;28;20033;-72
2022/10/13 06:33:48;;;;;;;29.73;26.60;;;;;;;13.21;64.67;101625.66;5015104;28;20061;-72
2022/10/13 06:36:13;;;;;;;28.95;26.25;;;;;;;13.21;64.65;101618.31;5014081;28;20070;-73
2022/10/13 06:38:39;;;;;;;28.60;26.00;;;;;;;13.21;65.13;101618.31;5014856;28;20093;-73
2022/10/13 06:41:05;;;;;;;31.00;27.25;;;;;;;13.22;64.92;101616.44;5015111;28;20386;-73
2022/10/13 06:43:30;;;;;;;27.63;24.98;;;;;;;13.22;64.80;101613.72;5013839;28;20038;-73
2022/10/13 06:46:00;;;;;;;29.65;26.75;;;;;;;13.23;65.08;101618.09;5013732;28;20421;-73
2022/10/13 06:48:26;;;;;;;27.92;25.75;;;;;;;13.23;64.85;101617.25;5014688;28;20379;-73
2022/10/13 06:50:52;;;;;;;28.95;26.08;;;;;;;13.23;64.79;101606.41;5014959;28;20033;-73
2022/10/13 06:53:18;;;;;;;30.77;27.42;;;;;;;13.23;65.03;101620.81;5014639;28;20038;-73
2022/10/13 06:55:43;;;;;;;30.58;27.73;;;;;;;13.23;65.10;101609.09;5013517;28;20474;-73
2022/10/13 06:58:09;;;;;;;29.92;27.10;;;;;;;13.23;65.01;101615.38;5013478;28;20034;-73
2022/10/13 07:00:36;;;;;;;28.23;25.48;;;;;;;13.24;64.96;101614.31;5014116;28;20092;-72
2022/10/13 07:03:01;;;;;;;27.17;25.17;;;;;;;13.24;64.78;101617.03;5013971;28;20041;-72
2022/10/13 07:05:27;;;;;;;27.85;25.40;;;;;;;13.24;64.81;101613.50;5013362;28;20026;-73
2022/10/13 07:07:52;;;;;;;29.98;27.17;;;;;;;13.24;64.66;101627.06;5014696;28;20072;-74
2022/10/13 07:10:18;;;;;;;28.27;25.75;;;;;;;13.24;64.88;101622.44;5013953;28;20026;-72
2022/10/13 07:12:44;;;;;;;28.17;25.25;;;;;;;13.25;64.69;101626.78;4996924;28;20038;-75
2022/10/13 07:15:09;;;;;;;32.10;26.98;;;;;;;13.25;64.87;101623.25;5013239;28;20029;-74
2022/10/13 07:17:35;;;;;;;27.48;25.27;;;;;;;13.26;64.90;101625.75;5014523;28;20042;-73
2022/10/13 07:20:02;;;;;;;31.08;27.98;;;;;;;13.26;64.67;101619.50;5014410;28;20144;-73
2022/10/13 07:22:28;;;;;;;38.13;27.92;;;;;;;13.26;64.72;101622.22;5012992;28;20037;-72
2022/10/13 07:24:53;;;;;;;28.42;26.08;;;;;;;13.26;64.88;101619.50;5013069;28;20034;-72
2022/10/13 07:27:19;;;;;;;28.52;26.05;;;;;;;13.27;64.77;101626.59;5014577;28;20156;-72
2022/10/13 07:29:44;;;;;;;30.92;28.15;;;;;;;13.27;64.79;101622.00;5014429;28;20034;-72
2022/10/13 07:32:10;;;;;;;28.90;26.05;;;;;;;13.26;65.03;101616.78;5013159;28;20065;-72
2022/10/13 07:34:35;;;;;;;27.85;25.52;;;;;;;13.27;65.01;101613.03;5013958;28;20026;-73
2022/10/13 07:37:00;;;;;;;30.25;27.38;;;;;;;13.27;65.05;101615.75;5012520;28;20081;-72
2022/10/13 07:39:26;;;;;;;28.73;26.27;;;;;;;13.28;65.10;101614.69;5013271;28;20034;-73
2022/10/13 07:41:51;;;;;;;31.85;28.85;;;;;;;13.28;64.96;101620.94;5012882;28;20066;-71
2022/10/13 07:44:17;;;;;;;28.45;26.10;;;;;;;13.29;65.04;101617.16;5012810;28;20038;-72
2022/10/13 07:46:42;;;;;;;26.75;24.52;;;;;;;13.30;65.19;101623.41;5014020;28;20038;-72
2022/10/13 07:49:08;;;;;;;28.90;26.40;;;;;;;13.30;64.98;101615.25;5012656;28;20474;-74
2022/10/13 07:51:33;;;;;;;28.45;26.05;;;;;;;13.30;65.09;101623.41;5012676;28;20105;-73
2022/10/13 07:53:59;;;;;;;31.50;28.52;;;;;;;13.31;65.24;101622.34;4996427;28;20132;-73
2022/10/13 07:56:24;;;;;;;30.40;27.45;;;;;;;13.32;65.33;101630.25;5013887;28;20490;-73
2022/10/13 07:58:49;;;;;;;30.02;27.08;;;;;;;13.32;65.12;101624.81;5012473;28;20030;-73
2022/10/13 08:01:16;;;;;;;31.05;27.60;;;;;;;13.32;65.48;101622.09;4996733;28;20044;-73
2022/10/13 08:03:42;;;;;;;30.20;27.15;;;;;;;13.32;65.62;101618.56;5012561;28;20493;-71
2022/10/13 08:06:08;;;;;;;28.45;25.35;;;;;;;13.32;65.30;101627.53;5012304;28;20026;-71
2022/10/13 08:08:33;;;;;;;28.65;26.08;;;;;;;13.33;65.41;101621.06;5013780;28;20041;-73
2022/10/13 08:11:01;;;;;;;30.60;27.95;;;;;;;13.35;65.51;101618.09;5013644;28;20040;-75
2022/10/13 08:13:26;;;;;;;34.03;28.52;;;;;;;13.36;65.89;101619.75;5013441;28;20025;-73
2022/10/13 08:15:52;;;;;;;31.80;27.92;;;;;;;13.36;65.98;101611.59;5013169;28;20087;-73
2022/10/13 08:18:17;;;;;;;30.35;27.40;;;;;;;13.36;65.80;101615.13;5011876;28;20030;-73
2022/10/13 08:20:44;;;;;;;29.10;26.52;;;;;;;13.37;65.63;101610.53;5013715;28;20459;-72
2022/10/13 08:23:13;;;;;;;29.75;27.02;;;;;;;13.38;65.80;101606.75;5012303;28;20564;-73
2022/10/13 08:25:40;;;;;;;29.25;26.63;;;;;;;13.37;66.11;101608.63;5013180;28;20423;-72
2022/10/13 08:28:21;;;;;;;29.33;26.52;;;;;;;13.39;65.70;101619.25;5013859;28;20034;-72
2022/10/13 08:30:47;;;;;;;28.25;25.90;;;;;;;13.39;65.33;101619.25;5013440;28;20030;-72
2022/10/13 08:33:13;;;;;;;29.25;26.75;;;;;;;13.40;65.34;101621.72;5013559;28;20040;-73
2022/10/13 08:35:38;;;;;;;28.58;26.27;;;;;;;13.41;65.42;101617.13;5016197;28;20030;-73
2022/10/13 08:38:04;;;;;;;31.60;28.45;;;;;;;13.41;65.18;101612.53;5017255;28;20088;-73
2022/10/13 08:40:29;;;;;;;33.13;29.83;;;;;;;13.45;65.61;101612.03;5017229;28;20030;-73
2022/10/13 08:42:56;;;;;;;30.13;27.80;;;;;;;13.43;65.54;101604.16;5017143;28;20037;-72
2022/10/13 08:45:28;;;;;;;31.02;28.08;;;;;;;13.45;65.79;101609.34;5016011;28;20470;-72
2022/10/13 08:47:59;;;;;;;29.27;26.67;;;;;;;13.46;65.71;101608.28;5017167;28;20037;-72
2022/10/13 08:50:34;;;;;;;27.40;25.38;;;;;;;13.47;65.74;101607.22;5016287;28;20355;-72
2022/10/13 08:53:32;;;;;;;33.15;29.98;;;;;;;13.48;65.85;101601.56;5017511;28;20127;-73
2022/10/13 08:56:03;;;;;;;29.67;26.92;;;;;;;13.48;65.83;101604.25;5016253;28;20045;-73
2022/10/13 08:58:32;;;;;;;29.88;27.25;;;;;;;13.49;65.78;101603.19;5015474;28;20381;-73
2022/10/13 09:01:09;;;;;;;;;;;;;;;13.50;65.83;101593.16;5017475;28;20064;-73
2022/10/13 09:03:40;;;;;;;27.13;24.58;;;;;;;13.50;65.42;101598.56;5017003;28;20035;-72
2022/10/13 09:06:27;;;;;;;30.40;27.90;;;;;;;13.51;65.92;101592.91;5016950;28;20034;-73
2022/10/13 09:09:13;;;;;;;29.88;26.38;;;;;;;13.53;65.73;101598.94;5017330;28;20038;-73
2022/10/13 09:11:44;;;;;;;29.17;26.38;;;;;;;13.54;65.49;101602.47;5017254;28;20040;-73
2022/10/13 09:14:17;;;;;;;32.08;28.50;;;;;;;13.56;65.30;101598.44;5016342;28;20034;-73
2022/10/13 09:16:43;;;;;;;27.75;25.63;;;;;;;13.57;65.59;101602.78;5016654;28;20034;-73
2022/10/13 09:19:14;;;;;;;30.60;27.70;;;;;;;13.58;65.58;101593.59;5017048;28;20025;-74
2022/10/13 09:21:40;;;;;;;29.65;26.88;;;;;;;13.61;65.67;101600.44;5016105;28;20048;-73
2022/10/13 09:24:11;;;;;;;31.55;28.75;;;;;;;13.61;65.66;101593.13;5016437;28;20080;-73
2022/10/13 09:26:38;;;;;;;31.73;28.70;;;;;;;13.63;65.53;101591.00;5016404;28;20037;-73
2022/10/13 09:29:09;;;;;;;32.28;29.30;;;;;;;13.65;65.87;101588.00;5015022;28;20471;-74
2022/10/13 09:31:36;;;;;;;30.02;27.63;;;;;;;13.67;65.84;101587.78;5015474;28;20373;-72
2022/10/13 09:34:22;;;;;;;31.13;28.23;;;;;;;13.69;65.72;101591.09;5016571;28;20034;-73
2022/10/13 09:37:03;;;;;;;30.58;27.70;;;;;;;13.69;66.00;101594.63;5014873;28;20116;-73
2022/10/13 09:39:30;;;;;;;29.40;27.00;;;;;;;13.70;65.72;101593.53;5015320;28;20367;-73
2022/10/13 09:42:31;;;;;;;31.55;28.42;;;;;;;13.72;66.19;101582.44;5013429;28;20069;-73
2022/10/13 09:45:17;;;;;;;30.42;27.92;;;;;;;13.72;66.45;101580.53;4937965;28;20094;-73
2022/10/13 09:47:55;;;;;;;30.98;28.13;;;;;;;13.73;66.27;101581.38;5008598;28;20482;-73
2022/10/13 09:50:27;;;;;;;33.65;28.20;;;;;;;13.74;66.34;101583.03;5014785;28;20026;-73
2022/10/13 09:52:53;;;;;;;30.65;27.17;;;;;;;13.75;66.32;101584.66;5014889;28;20084;-73
2022/10/13 09:55:32;;;;;;;32.00;29.20;;;;;;;13.77;66.39;101587.97;5014867;28;20470;-74
2022/10/13 09:58:25;;;;;;;31.35;28.52;;;;;;;13.79;66.75;101585.84;5014886;28;20036;-73
2022/10/13 10:00:52;;;;;;;29.08;26.45;;;;;;;13.79;66.44;101578.50;5014647;28;20041;-73
2022/10/13 10:03:26;;;;;;;31.42;28.77;;;;;;;13.80;66.65;101584.75;5014808;28;20130;-71
2022/10/13 10:06:11;;;;;;;31.15;28.25;;;;;;;13.81;66.57;101575.56;5014950;28;20112;-73
2022/10/13 10:08:52;;;;;;;30.00;27.38;;;;;;;13.83;67.00;101578.84;5013560;28;20041;-74
2022/10/13 10:11:34;;;;;;;31.77;28.90;;;;;;;13.83;66.68;101576.97;5014513;28;20040;-73
2022/10/13 10:14:33;;;;;;;29.73;27.38;;;;;;;13.85;66.87;101582.13;5013640;28;20030;-76
2022/10/13 10:17:13;;;;;;;30.83;28.13;;;;;;;13.85;66.71;101576.72;4981789;28;20104;-73
2022/10/13 10:19:55;;;;;;;29.10;26.58;;;;;;;13.86;67.14;101583.81;5014301;28;20482;-74
2022/10/13 10:22:53;;;;;;;30.58;27.92;;;;;;;13.87;67.08;101573.75;5014417;28;20037;-74
2022/10/13 10:25:29;;;;;;;31.20;28.70;;;;;;;13.88;66.85;101575.41;4973075;28;20136;-73
2022/10/13 10:28:40;;;;;;;29.33;27.10;;;;;;;13.88;67.06;101570.78;5014337;28;20029;-74
2022/10/13 10:31:18;;;;;;;30.98;28.08;;;;;;;13.89;66.78;101566.19;5014351;28;20025;-75
2022/10/13 10:33:53;;;;;;;32.03;28.60;;;;;;;13.90;66.64;101571.38;5013480;28;20026;-73
2022/10/13 10:36:27;;;;;;;32.10;29.40;;;;;;;13.90;66.84;101568.66;5014076;28;20026;-73
2022/10/13 10:38:59;;;;;;;30.85;28.20;;;;;;;13.92;67.02;101563.81;4972712;28;1230894;-73
2022/10/13 10:41:57;;;;;;;33.45;30.10;;;;;;;13.93;66.97;101562.72;5015126;28;20103;-73
2022/10/13 10:44:30;;;;;;;31.23;28.50;;;;;;;13.93;66.97;101554.56;5015093;28;20465;-73
2022/10/13 10:47:01;;;;;;;28.90;26.83;;;;;;;13.95;66.86;101559.78;5015721;28;20038;-73
2022/10/13 10:49:35;;;;;;;30.95;28.27;;;;;;;13.95;67.14;101551.63;5015314;28;20044;-73
2022/10/13 10:52:06;;;;;;;30.58;27.90;;;;;;;13.97;67.05;101555.75;5015609;28;20100;-73
2022/10/13 10:54:54;;;;;;;31.40;28.92;;;;;;;13.97;67.10;101550.31;5015015;28;20022;-73
2022/10/13 10:57:35;;;;;;;31.38;28.40;;;;;;;13.99;66.76;101550.06;5014341;28;20113;-73
2022/10/13 11:00:10;;;;;;;27.58;25.58;;;;;;;14.00;67.06;101549.00;5015011;28;20034;-73
2022/10/13 11:02:45;;;;;;;31.88;28.77;;;;;;;14.01;67.35;101556.06;5014622;28;20026;-73
2022/10/13 11:05:10;;;;;;;32.17;29.38;;;;;;;14.01;67.09;101546.03;5013403;28;20409;-74
2022/10/13 11:07:39;;;;;;;32.08;28.90;;;;;;;14.03;67.07;101545.78;5014550;28;20034;-73
2022/10/13 11:10:15;;;;;;;29.38;26.95;;;;;;;14.03;67.45;101535.72;5013333;28;20026;-73
2022/10/13 11:12:49;;;;;;;30.17;27.58;;;;;;;14.04;67.30;101542.81;5014473;28;20463;-74
2022/10/13 11:15:41;;;;;;;30.55;28.10;;;;;;;14.06;67.43;101539.84;5014319;28;20478;-75
2022/10/13 11:18:44;;;;;;;27.60;25.60;;;;;;;14.06;67.27;101531.69;5013294;28;20030;-76
2022/10/13 11:21:09;;;;;;;28.95;26.70;;;;;;;14.06;66.71;101528.97;5014037;28;20045;-73
2022/10/13 11:23:44;;;;;;;29.33;27.20;;;;;;;14.07;67.27;101520.59;5014309;28;20034;-74